createdAt,value
2018-07-27T00:00:46.652Z,16.42
2018-07-27T00:06:41.644Z,14.17
2018-07-27T00:12:36.660Z,16.11
2018-07-27T00:18:31.696Z,13.67
2018-07-27T00:24:26.657Z,12.48
2018-07-27T00:30:21.660Z,9.79
2018-07-27T00:36:16.649Z,12.76
2018-07-27T00:42:11.694Z,14.85
2018-07-27T00:48:06.643Z,12.57
2018-07-27T00:54:01.676Z,13.86
2018-07-27T00:59:56.684Z,10.86
2018-07-27T01:05:51.678Z,12.5
2018-07-27T01:11:46.658Z,9.47
2018-07-27T01:17:41.650Z,9.88
2018-07-27T01:23:36.631Z,11.93
2018-07-27T01:29:31.706Z,10.98
2018-07-27T01:35:26.665Z,11.09
2018-07-27T01:41:21.656Z,12.01
2018-07-27T01:47:16.652Z,12.38
2018-07-27T01:53:11.660Z,12.38
2018-07-27T01:59:06.635Z,10.48
2018-07-27T02:05:01.718Z,13.58
2018-07-27T02:10:56.678Z,13.74
2018-07-27T02:16:51.664Z,12.62
2018-07-27T02:22:46.657Z,10.39
2018-07-27T02:28:41.657Z,9.99
2018-07-27T02:34:36.686Z,10.32
2018-07-27T02:40:31.686Z,11.06
2018-07-27T02:46:26.700Z,10.29
2018-07-27T02:52:21.677Z,16.84
2018-07-27T02:58:16.673Z,13.66
2018-07-27T03:04:11.668Z,14.95
2018-07-27T03:10:06.660Z,9.89
2018-07-27T03:16:01.664Z,10.65
2018-07-27T03:21:56.673Z,14.23
2018-07-27T03:27:51.676Z,12.38
2018-07-27T03:33:46.686Z,11.36
2018-07-27T03:39:41.693Z,14.7
2018-07-27T03:45:36.697Z,13.53
2018-07-27T03:51:31.701Z,11.76
2018-07-27T03:57:26.669Z,11.69
2018-07-27T04:03:21.671Z,12.64
2018-07-27T04:09:16.672Z,14.21
2018-07-27T04:15:11.674Z,11.34
2018-07-27T04:21:06.676Z,14.64
2018-07-27T04:27:01.664Z,14.21
2018-07-27T04:32:56.678Z,12.58
2018-07-27T04:38:51.681Z,30.46
2018-07-27T04:44:46.698Z,14.07
2018-07-27T04:50:41.676Z,14.41
2018-07-27T04:56:36.810Z,12.97
2018-07-27T05:02:31.688Z,13.79
2018-07-27T05:08:26.678Z,12.2
2018-07-27T05:14:21.681Z,12.6
2018-07-27T05:20:16.710Z,13.71
2018-07-27T05:26:11.687Z,13.36
2018-07-27T05:32:06.673Z,21.53
2018-07-27T05:38:01.705Z,15.24
2018-07-27T05:43:56.691Z,15.07
2018-07-27T05:49:51.730Z,17.83
2018-07-27T05:55:46.704Z,13.94
2018-07-27T06:01:41.716Z,13.8
2018-07-27T06:07:36.665Z,12.08
2018-07-27T06:13:31.687Z,17.64
2018-07-27T06:19:26.692Z,18.66
2018-07-27T06:25:21.682Z,14.17
2018-07-27T06:31:16.715Z,13.06
2018-07-27T06:37:11.716Z,13.38
2018-07-27T06:43:06.703Z,12.8
2018-07-27T06:49:01.693Z,22.3
2018-07-27T06:54:56.685Z,24.65
2018-07-27T07:00:51.720Z,25.6
2018-07-27T07:06:46.704Z,28.85
2018-07-27T07:12:41.746Z,34.52
2018-07-27T07:18:36.711Z,32.64
2018-07-27T07:24:31.679Z,20.44
2018-07-27T07:30:26.686Z,17.63
2018-07-27T07:36:21.759Z,20.92
2018-07-27T07:42:16.692Z,14.28
2018-07-27T07:48:11.701Z,16.37
2018-07-27T07:54:06.685Z,19.79
2018-07-27T08:00:01.823Z,12.75
2018-07-27T08:05:56.706Z,13.6
2018-07-27T08:11:51.712Z,14.92
2018-07-27T08:17:46.716Z,17.84
2018-07-27T08:23:41.725Z,17.11
2018-07-27T08:29:36.742Z,17.29
2018-07-27T08:35:31.762Z,15.03
2018-07-27T08:41:26.712Z,12.47
2018-07-27T08:47:21.778Z,10.95
2018-07-27T08:53:16.706Z,13.87
2018-07-27T08:59:11.747Z,13.56
2018-07-27T09:05:06.719Z,13.53
2018-07-27T09:11:01.721Z,11.68
2018-07-27T09:16:56.764Z,14
2018-07-27T09:22:51.709Z,13.54
2018-07-27T09:28:46.719Z,10.18
2018-07-27T09:34:41.717Z,10.86
2018-07-27T09:40:36.797Z,9.83
2018-07-27T09:46:31.713Z,9.95
2018-07-27T09:52:26.727Z,9.9
2018-07-27T09:58:21.718Z,11.77
2018-07-27T10:04:16.735Z,10.17
2018-07-27T10:10:11.738Z,11.21
2018-07-27T10:16:06.761Z,11.36
2018-07-27T10:27:56.723Z,10.11
2018-07-27T10:27:56.753Z,10.09
2018-07-27T16:28:51.799Z,6.93
2018-07-27T16:34:46.813Z,13.35
2018-07-27T19:50:01.820Z,19.37
2018-07-27T23:17:06.881Z,21.66
2018-07-27T23:23:01.874Z,14.18
2018-07-27T23:40:46.848Z,17.23
2018-07-27T23:40:52.037Z,17.27
2018-07-27T23:40:52.049Z,17.27
2018-07-27T23:46:41.871Z,15.85
